createdAt,value
2019-01-03T00:01:53.880Z,5.07
2019-01-03T00:04:25.152Z,4.90
2019-01-03T00:06:59.485Z,4.63
2019-01-03T00:09:42.653Z,4.83
2019-01-03T00:12:30.587Z,4.67
2019-01-03T00:15:02.197Z,5.20
2019-01-03T00:17:34.658Z,4.07
2019-01-03T00:20:22.014Z,4.97
2019-01-03T00:22:57.037Z,4.17
2019-01-03T00:25:28.232Z,4.30
2019-01-03T00:28:14.436Z,4.97
2019-01-03T00:31:00.496Z,4.13
2019-01-03T00:33:35.479Z,3.67
2019-01-03T00:36:09.498Z,4.43
2019-01-03T00:38:52.897Z,3.70
2019-01-03T00:41:35.960Z,4.53
2019-01-03T00:44:13.007Z,3.30
2019-01-03T00:46:44.239Z,3.30
2019-01-03T00:49:18.432Z,3.77
2019-01-03T00:51:49.535Z,3.40
2019-01-03T00:54:23.387Z,3.43
2019-01-03T00:57:03.536Z,4.17
2019-01-03T00:59:37.551Z,3.53
2019-01-03T01:02:08.656Z,3.70
2019-01-03T01:04:42.773Z,3.73
2019-01-03T01:07:16.684Z,3.37
2019-01-03T01:09:47.798Z,3.20
2019-01-03T01:12:18.835Z,3.90
2019-01-03T01:15:06.905Z,3.50
2019-01-03T01:17:38.384Z,3.47
2019-01-03T01:20:24.766Z,3.50
2019-01-03T01:23:10.448Z,3.83
2019-01-03T01:25:41.859Z,3.40
2019-01-03T01:28:21.734Z,3.40
2019-01-03T01:31:09.988Z,3.40
2019-01-03T01:33:59.207Z,4.20
2019-01-03T01:36:30.735Z,3.70
2019-01-03T01:39:17.813Z,3.20
2019-01-03T01:42:07.675Z,2.80
2019-01-03T01:44:54.902Z,3.20
2019-01-03T01:47:26.217Z,3.50
2019-01-03T01:49:59.887Z,2.67
2019-01-03T01:52:47.431Z,2.83
2019-01-03T01:55:27.466Z,3.30
2019-01-03T01:57:58.942Z,3.90
2019-01-03T02:00:47.920Z,3.27
2019-01-03T02:03:19.445Z,3.20
2019-01-03T02:05:53.500Z,4.47
2019-01-03T02:08:24.563Z,3.70
2019-01-03T02:10:55.859Z,3.47
2019-01-03T02:13:35.908Z,2.70
2019-01-03T02:16:21.877Z,3.80
2019-01-03T02:19:09.533Z,3.40
2019-01-03T02:21:52.973Z,3.03
2019-01-03T02:24:30.232Z,3.53
2019-01-03T02:27:17.330Z,3.40
2019-01-03T02:29:48.520Z,3.43
2019-01-03T02:32:25.875Z,3.37
2019-01-03T02:35:12.427Z,3.03
2019-01-03T02:37:59.563Z,3.10
2019-01-03T02:40:36.450Z,3.00
2019-01-03T02:43:07.587Z,3.30
2019-01-03T02:45:39.206Z,2.90
2019-01-03T02:48:10.407Z,2.97
2019-01-03T02:50:42.599Z,2.27
2019-01-03T02:53:25.370Z,3.73
2019-01-03T02:55:59.196Z,3.30
2019-01-03T02:58:30.100Z,3.80
2019-01-03T03:01:18.136Z,3.43
2019-01-03T03:03:55.462Z,3.23
2019-01-03T03:06:31.142Z,3.43
2019-01-03T03:09:14.348Z,3.90
2019-01-03T03:11:45.367Z,3.53
2019-01-03T03:14:23.115Z,3.47
2019-01-03T03:17:11.037Z,3.10
2019-01-03T03:19:56.922Z,2.90
2019-01-03T03:22:33.824Z,3.30
2019-01-03T03:25:10.728Z,2.80
2019-01-03T03:27:42.175Z,3.13
2019-01-03T03:30:29.314Z,2.90
2019-01-03T03:33:00.447Z,2.90
2019-01-03T03:35:31.805Z,2.83
2019-01-03T03:38:20.907Z,2.70
2019-01-03T03:41:08.403Z,2.97
2019-01-03T03:43:41.980Z,2.70
2019-01-03T03:46:18.856Z,2.70
2019-01-03T03:49:06.610Z,2.70
2019-01-03T03:51:40.375Z,2.73
2019-01-03T03:54:27.768Z,3.93
2019-01-03T03:57:07.839Z,2.67
2019-01-03T03:59:45.576Z,2.50
2019-01-03T04:02:16.733Z,2.80
2019-01-03T04:04:54.068Z,2.90
2019-01-03T04:07:43.252Z,2.80
2019-01-03T04:10:14.658Z,3.40
2019-01-03T04:12:47.116Z,2.70
2019-01-03T04:15:18.519Z,2.90
2019-01-03T04:18:06.173Z,2.90
2019-01-03T04:20:52.963Z,3.10
2019-01-03T04:23:40.029Z,2.73
2019-01-03T04:26:18.505Z,2.80
2019-01-03T04:29:06.081Z,3.17
2019-01-03T04:31:40.410Z,2.77
2019-01-03T04:34:26.517Z,3.00
2019-01-03T04:36:57.907Z,3.47
2019-01-03T04:39:31.961Z,3.40
2019-01-03T04:42:03.187Z,3.23
2019-01-03T04:44:47.494Z,3.23
2019-01-03T04:47:18.485Z,2.73
2019-01-03T04:49:49.548Z,2.90
2019-01-03T04:52:23.777Z,2.87
2019-01-03T04:55:11.970Z,3.10
2019-01-03T04:57:43.832Z,2.70
2019-01-03T05:03:32.378Z,2.83
2019-01-03T05:06:05.971Z,2.90
2019-01-03T05:08:37.240Z,2.83
2019-01-03T05:11:08.360Z,3.13
2019-01-03T05:13:45.595Z,2.70
2019-01-03T05:16:33.213Z,2.90
2019-01-03T05:19:07.390Z,3.00
2019-01-03T05:21:50.502Z,2.63
2019-01-03T05:24:24.592Z,2.60
2019-01-03T05:26:56.552Z,2.77
2019-01-03T05:29:34.756Z,3.10
2019-01-03T05:32:24.198Z,3.00
2019-01-03T05:35:00.835Z,3.23
2019-01-03T05:37:40.899Z,3.00
2019-01-03T05:40:24.461Z,2.50
2019-01-03T05:42:58.592Z,3.00
2019-01-03T05:45:31.879Z,2.93
2019-01-03T05:48:19.296Z,3.73
2019-01-03T05:50:50.466Z,3.60
2019-01-03T05:53:24.571Z,2.87
2019-01-03T05:56:12.050Z,3.23
2019-01-03T05:58:43.147Z,3.30
2019-01-03T06:01:23.102Z,3.60
2019-01-03T06:04:06.010Z,3.30
2019-01-03T06:06:43.494Z,3.13
2019-01-03T06:09:31.103Z,3.50
2019-01-03T06:12:04.826Z,3.23
2019-01-03T06:14:52.011Z,5.00
2019-01-03T06:17:29.390Z,3.37
2019-01-03T06:20:06.371Z,3.33
2019-01-03T06:22:53.886Z,4.33
2019-01-03T06:25:31.147Z,8.47
2019-01-03T06:28:18.800Z,3.77
2019-01-03T06:30:49.798Z,3.20
2019-01-03T06:33:23.789Z,2.87
2019-01-03T06:35:57.896Z,3.37
2019-01-03T06:38:45.609Z,3.17
2019-01-03T06:41:19.781Z,3.10
2019-01-03T06:43:51.135Z,3.53
2019-01-03T06:46:22.154Z,3.60
2019-01-03T06:49:08.386Z,3.57
2019-01-03T06:51:45.030Z,3.73
2019-01-03T06:54:25.539Z,3.43
2019-01-03T06:56:59.363Z,4.07
2019-01-03T06:59:39.652Z,3.00
2019-01-03T07:02:26.746Z,2.90
2019-01-03T07:05:14.226Z,3.70
2019-01-03T07:08:01.273Z,4.20
2019-01-03T07:10:47.586Z,3.67
2019-01-03T07:13:36.864Z,3.33
2019-01-03T07:16:24.671Z,3.43
2019-01-03T07:18:58.579Z,3.57
2019-01-03T07:21:32.411Z,3.30
2019-01-03T07:24:03.445Z,3.70
2019-01-03T07:26:40.783Z,3.33
2019-01-03T07:29:24.753Z,4.00
2019-01-03T07:32:12.195Z,3.60
2019-01-03T07:34:57.901Z,3.10
2019-01-03T07:37:38.026Z,3.93
2019-01-03T07:40:26.167Z,4.07
2019-01-03T07:43:03.661Z,4.03
2019-01-03T07:45:40.349Z,3.80
2019-01-03T07:48:14.656Z,4.50
2019-01-03T07:50:48.511Z,4.70
2019-01-03T07:53:36.263Z,4.33
2019-01-03T07:56:23.396Z,4.07
2019-01-03T07:59:00.486Z,4.30
2019-01-03T08:01:37.164Z,4.03
2019-01-03T08:04:23.672Z,4.40
2019-01-03T08:07:09.374Z,5.17
2019-01-03T08:09:56.779Z,5.00
2019-01-03T08:12:27.887Z,4.47
2019-01-03T08:15:02.067Z,5.20
2019-01-03T08:17:33.340Z,5.13
2019-01-03T08:20:04.802Z,4.57
2019-01-03T08:22:51.974Z,4.70
2019-01-03T08:25:23.366Z,4.93
2019-01-03T08:28:09.815Z,5.00
2019-01-03T08:30:41.290Z,4.80
2019-01-03T08:33:15.256Z,4.83
2019-01-03T08:35:46.587Z,5.20
2019-01-03T08:38:34.147Z,4.47
2019-01-03T08:41:21.950Z,4.97
2019-01-03T08:43:58.659Z,5.03
2019-01-03T08:46:32.706Z,4.87
2019-01-03T08:49:19.122Z,9.67
2019-01-03T08:52:06.224Z,4.90
2019-01-03T08:54:53.691Z,5.97
2019-01-03T08:57:25.062Z,5.43
2019-01-03T09:00:12.172Z,5.50
2019-01-03T09:02:43.171Z,5.50
2019-01-03T09:05:30.560Z,6.17
2019-01-03T09:08:17.001Z,6.53
2019-01-03T09:10:54.013Z,5.63
2019-01-03T09:13:41.771Z,6.27
2019-01-03T09:16:29.175Z,6.07
2019-01-03T09:19:00.239Z,7.30
2019-01-03T09:21:31.453Z,6.30
2019-01-03T09:24:18.749Z,6.30
2019-01-03T09:27:12.262Z,5.93
2019-01-03T09:29:55.952Z,5.83
2019-01-03T09:32:33.311Z,5.13
2019-01-03T09:35:04.380Z,5.17
2019-01-03T09:37:35.463Z,4.77
2019-01-03T09:40:22.977Z,5.17
2019-01-03T09:43:10.010Z,4.83
2019-01-03T09:45:44.223Z,5.57
2019-01-03T09:48:10.750Z,5.47
2019-01-03T09:50:40.045Z,4.93
2019-01-03T09:53:09.580Z,5.20
2019-01-03T09:55:39.264Z,5.60
2019-01-03T09:58:08.825Z,5.27
2019-01-03T10:00:38.424Z,5.97
2019-01-03T10:03:07.959Z,6.30
2019-01-03T10:05:37.516Z,5.43
2019-01-03T10:08:07.387Z,5.77
2019-01-03T10:10:37.181Z,5.00
2019-01-03T10:13:06.623Z,5.20
2019-01-03T10:15:36.019Z,5.60
2019-01-03T10:18:05.363Z,5.57
2019-01-03T10:20:34.679Z,5.27
2019-01-03T10:23:03.985Z,5.47
2019-01-03T10:25:33.678Z,5.40
2019-01-03T10:28:03.730Z,5.53
2019-01-03T10:30:33.122Z,5.33
2019-01-03T10:33:03.393Z,5.57
2019-01-03T10:35:32.807Z,5.63
2019-01-03T10:38:02.338Z,5.27
2019-01-03T10:40:32.019Z,6.20
2019-01-03T10:43:02.521Z,5.93
2019-01-03T10:45:31.971Z,5.87
2019-01-03T10:48:01.448Z,5.50
2019-01-03T10:50:31.654Z,5.80
2019-01-03T10:53:01.388Z,5.53
2019-01-03T10:55:31.032Z,5.47
2019-01-03T10:58:00.778Z,5.10
2019-01-03T11:00:30.403Z,5.13
2019-01-03T11:02:59.888Z,4.50
2019-01-03T11:05:29.476Z,5.13
2019-01-03T11:07:58.851Z,4.27
2019-01-03T11:10:28.353Z,4.40
2019-01-03T11:12:57.795Z,3.37
2019-01-03T11:15:27.185Z,4.70
2019-01-03T11:17:56.872Z,3.67
2019-01-03T11:20:26.371Z,4.97
2019-01-03T11:22:55.976Z,4.13
2019-01-03T11:25:25.661Z,3.97
2019-01-03T11:27:54.950Z,4.00
2019-01-03T11:30:24.397Z,4.43
2019-01-03T11:32:54.179Z,3.20
2019-01-03T11:35:23.565Z,3.77
2019-01-03T11:37:53.278Z,3.30
2019-01-03T11:40:22.892Z,3.17
2019-01-03T11:42:52.592Z,3.57
2019-01-03T11:45:22.418Z,3.40
2019-01-03T11:47:51.756Z,2.83
2019-01-03T11:50:21.095Z,3.60
2019-01-03T11:52:50.735Z,3.00
2019-01-03T11:55:20.331Z,3.90
2019-01-03T11:57:49.803Z,3.33
2019-01-03T12:00:19.296Z,3.60
2019-01-03T12:02:48.803Z,4.10
2019-01-03T12:05:18.374Z,4.30
2019-01-03T12:07:47.731Z,4.57
2019-01-03T12:10:17.187Z,4.47
2019-01-03T12:12:46.807Z,4.20
2019-01-03T12:15:16.585Z,3.87
2019-01-03T12:17:45.995Z,3.13
2019-01-03T12:20:15.388Z,3.40
2019-01-03T12:22:44.860Z,3.10
2019-01-03T12:25:14.417Z,2.77
2019-01-03T12:27:43.972Z,3.27
2019-01-03T12:30:13.591Z,3.20
2019-01-03T12:32:42.921Z,3.00
2019-01-03T12:35:12.242Z,4.00
2019-01-03T12:37:41.720Z,3.70
2019-01-03T12:40:11.320Z,3.40
2019-01-03T12:42:40.886Z,3.47
2019-01-03T12:45:10.616Z,4.60
2019-01-03T12:47:39.992Z,3.13
2019-01-03T12:50:10.890Z,3.63
2019-01-03T12:52:40.362Z,2.63
2019-01-03T12:55:09.881Z,3.47
2019-01-03T12:57:39.474Z,2.90
2019-01-03T13:00:10.869Z,3.67
2019-01-03T13:02:40.554Z,4.47
2019-01-03T13:05:10.036Z,4.57
2019-01-03T13:07:39.476Z,4.80
2019-01-03T13:10:09.309Z,4.70
2019-01-03T13:12:38.716Z,4.70
2019-01-03T13:15:08.238Z,5.30
2019-01-03T13:17:37.847Z,5.43
2019-01-03T13:20:07.887Z,5.77
2019-01-03T13:22:37.509Z,5.23
2019-01-03T13:25:07.525Z,5.33
2019-01-03T13:27:36.963Z,5.77
2019-01-03T13:30:09.420Z,5.50
2019-01-03T13:32:38.935Z,4.40
2019-01-03T13:35:08.586Z,3.67
2019-01-03T13:37:38.391Z,3.53
2019-01-03T13:40:07.901Z,3.50
2019-01-03T13:42:37.583Z,3.57
2019-01-03T13:45:07.421Z,4.23
2019-01-03T13:47:36.923Z,3.97
2019-01-03T13:50:07.492Z,3.83
2019-01-03T13:52:37.068Z,3.83
2019-01-03T13:55:06.641Z,3.80
2019-01-03T13:57:36.065Z,4.53
2019-01-03T14:00:08.192Z,4.37
2019-01-03T14:02:37.863Z,4.33
2019-01-03T14:05:07.636Z,4.90
2019-01-03T14:07:37.130Z,4.07
2019-01-03T14:10:07.331Z,4.63
2019-01-03T14:12:36.877Z,4.27
2019-01-03T14:15:08.096Z,3.47
2019-01-03T14:17:37.596Z,3.80
2019-01-03T14:20:10.595Z,3.40
2019-01-03T14:22:40.050Z,3.63
2019-01-03T14:25:09.441Z,3.87
2019-01-03T14:27:39.019Z,3.40
2019-01-03T14:30:09.291Z,4.23
2019-01-03T14:32:38.706Z,3.67
2019-01-03T14:35:08.767Z,3.80
2019-01-03T14:37:39.377Z,4.10
2019-01-03T14:40:10.762Z,7.23
2019-01-03T14:42:40.212Z,6.03
2019-01-03T14:45:09.678Z,5.50
2019-01-03T14:47:39.088Z,4.60
2019-01-03T14:50:10.300Z,4.97
2019-01-03T14:52:39.683Z,5.57
2019-01-03T14:55:09.832Z,5.33
2019-01-03T14:57:39.345Z,4.93
2019-01-03T15:00:12.254Z,5.43
2019-01-03T15:02:41.548Z,5.90
2019-01-03T15:05:14.000Z,6.10
2019-01-03T15:07:42.318Z,4.73
2019-01-03T15:10:11.915Z,4.60
2019-01-03T15:12:41.207Z,5.20
2019-01-03T15:15:10.769Z,4.83
2019-01-03T15:17:40.232Z,4.70
2019-01-03T15:20:11.231Z,4.63
2019-01-03T15:22:40.704Z,5.03
2019-01-03T15:25:10.181Z,4.80
2019-01-03T15:27:39.717Z,4.93
2019-01-03T15:30:10.832Z,5.27
2019-01-03T15:32:40.434Z,5.13
2019-01-03T15:35:10.038Z,5.73
2019-01-03T15:37:40.634Z,6.50
2019-01-03T15:40:10.036Z,7.17
2019-01-03T15:42:39.363Z,5.70
2019-01-03T15:45:09.215Z,6.10
2019-01-03T15:47:39.033Z,5.87
2019-01-03T15:50:08.348Z,6.80
2019-01-03T15:52:39.543Z,6.60
2019-01-03T15:55:08.864Z,7.13
2019-01-03T15:57:38.245Z,8.63
2019-01-03T16:00:09.900Z,9.50
2019-01-03T16:02:39.318Z,8.37
2019-01-03T16:05:09.249Z,8.53
2019-01-03T16:07:38.636Z,7.87
2019-01-03T16:10:08.316Z,7.50
2019-01-03T16:12:38.511Z,6.93
2019-01-03T16:15:07.883Z,7.07
2019-01-03T16:17:37.199Z,7.10
2019-01-03T16:20:08.004Z,6.07
2019-01-03T16:22:37.380Z,6.47
2019-01-03T16:25:06.991Z,6.17
2019-01-03T16:27:36.730Z,5.90
2019-01-03T16:30:08.703Z,5.70
2019-01-03T16:32:38.325Z,5.83
2019-01-03T16:35:07.863Z,5.57
2019-01-03T16:37:37.249Z,5.27
2019-01-03T16:40:08.490Z,4.83
2019-01-03T16:42:39.862Z,4.70
2019-01-03T16:45:11.496Z,4.60
2019-01-03T16:47:41.022Z,4.90
2019-01-03T16:50:13.235Z,5.30
2019-01-03T16:52:42.690Z,5.47
2019-01-03T16:55:12.755Z,5.20
2019-01-03T16:57:42.449Z,5.90
2019-01-03T17:00:12.066Z,5.67
2019-01-03T17:02:41.666Z,5.23
2019-01-03T17:05:11.048Z,6.90
2019-01-03T17:07:40.524Z,7.40
2019-01-03T17:10:12.547Z,6.83
2019-01-03T17:12:42.232Z,7.10
2019-01-03T17:15:11.843Z,6.00
2019-01-03T17:17:41.239Z,6.30
2019-01-03T17:20:10.941Z,5.20
2019-01-03T17:22:40.573Z,5.57
2019-01-03T17:25:11.285Z,6.20
2019-01-03T17:27:40.719Z,6.13
2019-01-03T17:30:11.443Z,6.07
2019-01-03T17:32:42.159Z,5.27
2019-01-03T17:35:11.773Z,5.70
2019-01-03T17:37:41.353Z,5.17
2019-01-03T17:40:12.510Z,5.57
2019-01-03T17:42:42.132Z,5.07
2019-01-03T17:45:11.655Z,5.77
2019-01-03T17:47:41.418Z,5.63
2019-01-03T17:50:11.905Z,6.07
2019-01-03T17:52:41.629Z,6.20
2019-01-03T17:55:11.049Z,5.37
2019-01-03T17:57:40.499Z,5.53
2019-01-03T18:00:13.515Z,5.10
2019-01-03T18:02:43.407Z,6.13
2019-01-03T18:05:12.912Z,5.70
2019-01-03T18:07:42.333Z,5.30
2019-01-03T18:10:13.406Z,5.80
2019-01-03T18:12:42.815Z,6.63
2019-01-03T18:15:12.358Z,6.47
2019-01-03T18:17:42.137Z,5.13
2019-01-03T18:20:14.395Z,6.07
2019-01-03T18:22:43.763Z,5.03
2019-01-03T18:25:13.203Z,5.63
2019-01-03T18:27:42.528Z,5.60
2019-01-03T18:30:12.787Z,5.60
2019-01-03T18:32:42.147Z,5.13
2019-01-03T18:35:11.597Z,5.50
2019-01-03T18:37:41.059Z,5.80
2019-01-03T18:40:13.033Z,5.47
2019-01-03T18:42:42.521Z,5.20
2019-01-03T18:45:14.555Z,4.97
2019-01-03T18:47:44.060Z,5.33
2019-01-03T18:50:18.752Z,5.47
2019-01-03T18:52:44.421Z,4.93
2019-01-03T18:55:14.107Z,6.23
2019-01-03T18:57:43.510Z,5.70
2019-01-03T19:00:13.020Z,5.37
2019-01-03T19:02:42.526Z,5.67
2019-01-03T19:05:12.128Z,5.30
2019-01-03T19:07:41.606Z,5.83
2019-01-03T19:10:12.207Z,5.67
2019-01-03T19:12:41.657Z,6.07
2019-01-03T19:15:11.011Z,6.13
2019-01-03T19:17:40.407Z,6.57
2019-01-03T19:20:10.436Z,7.10
2019-01-03T19:22:39.899Z,8.53
2019-01-03T19:25:14.611Z,8.70
2019-01-03T19:27:44.001Z,8.43
2019-01-03T19:30:13.463Z,9.47
2019-01-03T19:32:42.820Z,8.10
2019-01-03T19:35:12.663Z,8.60
2019-01-03T19:37:42.051Z,9.40
2019-01-03T19:40:13.327Z,8.63
2019-01-03T19:42:43.983Z,9.90
2019-01-03T19:45:13.702Z,8.07
2019-01-03T19:47:43.268Z,10.57
2019-01-03T19:50:17.362Z,9.90
2019-01-03T19:52:46.877Z,10.13
2019-01-03T19:55:16.498Z,8.73
2019-01-03T19:57:46.053Z,8.83
2019-01-03T20:00:15.863Z,9.13
2019-01-03T20:02:45.487Z,11.10
2019-01-03T20:05:14.889Z,9.10
2019-01-03T20:07:44.336Z,10.50
2019-01-03T20:10:14.944Z,10.43
2019-01-03T20:12:44.479Z,10.53
2019-01-03T20:15:14.756Z,9.17
2019-01-03T20:17:44.594Z,9.20
2019-01-03T20:20:13.935Z,10.10
2019-01-03T20:22:43.299Z,10.50
2019-01-03T20:25:12.999Z,10.23
2019-01-03T20:27:42.478Z,10.17
2019-01-03T20:30:12.020Z,9.80
2019-01-03T20:32:41.391Z,9.80
2019-01-03T20:35:10.957Z,9.17
2019-01-03T20:37:40.526Z,9.30
2019-01-03T20:40:10.027Z,10.30
2019-01-03T20:42:39.499Z,9.97
2019-01-03T20:45:13.415Z,11.17
2019-01-03T20:47:42.889Z,10.63
2019-01-03T20:50:13.082Z,9.40
2019-01-03T20:52:42.961Z,9.77
2019-01-03T20:55:12.262Z,9.97
2019-01-03T20:57:41.816Z,8.70
2019-01-03T21:00:14.092Z,10.97
2019-01-03T21:02:43.476Z,10.30
2019-01-03T21:05:12.954Z,9.70
2019-01-03T21:07:42.482Z,10.00
2019-01-03T21:10:12.517Z,10.53
2019-01-03T21:12:42.055Z,9.03
2019-01-03T21:15:14.430Z,8.60
2019-01-03T21:17:43.837Z,10.50
2019-01-03T21:20:15.716Z,9.23
2019-01-03T21:22:45.202Z,10.83
2019-01-03T21:25:14.619Z,10.00
2019-01-03T21:27:44.137Z,9.70
2019-01-03T21:30:17.775Z,9.47
2019-01-03T21:32:47.446Z,9.03
2019-01-03T21:35:16.863Z,9.60
2019-01-03T21:37:47.268Z,8.83
2019-01-03T21:40:16.879Z,8.07
2019-01-03T21:42:46.417Z,7.67
2019-01-03T21:45:15.931Z,8.63
2019-01-03T21:47:45.817Z,8.77
2019-01-03T21:50:15.367Z,8.37
2019-01-03T21:52:49.035Z,7.97
2019-01-03T21:55:21.260Z,7.63
2019-01-03T21:57:50.981Z,8.67
2019-01-03T22:00:20.473Z,7.97
2019-01-03T22:02:51.466Z,6.50
2019-01-03T22:05:21.009Z,7.40
2019-01-03T22:07:50.387Z,7.63
2019-01-03T22:10:20.320Z,7.23
2019-01-03T22:12:49.898Z,7.20
2019-01-03T22:15:19.553Z,7.30
2019-01-03T22:17:49.255Z,7.33
2019-01-03T22:20:18.569Z,6.53
2019-01-03T22:22:48.393Z,6.77
2019-01-03T22:25:17.965Z,7.60
2019-01-03T22:27:47.627Z,7.23
2019-01-03T22:30:17.061Z,7.13
2019-01-03T22:32:47.391Z,6.47
2019-01-03T22:35:17.261Z,7.00
2019-01-03T22:37:46.946Z,7.40
2019-01-03T22:40:16.860Z,6.83
2019-01-03T22:42:46.230Z,8.03
2019-01-03T22:45:15.713Z,8.23
2019-01-03T22:47:45.540Z,6.97
2019-01-03T22:50:15.108Z,7.10
2019-01-03T22:52:44.755Z,7.20
2019-01-03T22:55:14.532Z,7.20
2019-01-03T22:57:44.063Z,7.80
2019-01-03T23:00:17.090Z,7.00
2019-01-03T23:02:47.560Z,6.67
2019-01-03T23:05:17.003Z,6.70
2019-01-03T23:07:46.380Z,6.73
2019-01-03T23:10:15.765Z,7.50
2019-01-03T23:12:45.051Z,7.03
2019-01-03T23:15:14.807Z,7.60
2019-01-03T23:17:44.242Z,6.87
2019-01-03T23:20:13.646Z,7.17
2019-01-03T23:22:43.357Z,7.10
2019-01-03T23:25:12.754Z,6.87
2019-01-03T23:27:42.337Z,7.33
2019-01-03T23:30:12.009Z,7.00
2019-01-03T23:32:41.454Z,7.40
2019-01-03T23:35:10.924Z,6.20
2019-01-03T23:37:41.148Z,7.30
2019-01-03T23:40:10.824Z,7.27
2019-01-03T23:42:40.591Z,6.63
2019-01-03T23:45:15.055Z,6.77
2019-01-03T23:47:45.666Z,7.30
2019-01-03T23:50:18.387Z,7.23
2019-01-03T23:52:48.135Z,6.80
2019-01-03T23:55:17.956Z,6.90
2019-01-03T23:57:47.362Z,6.53
